createdAt,value
2017-12-02T00:02:18.877Z,90.96
2017-12-02T00:04:44.987Z,91.21
2017-12-02T00:07:11.092Z,90.66
2017-12-02T00:09:37.245Z,90.53
2017-12-02T00:12:03.311Z,90.67
2017-12-02T00:14:29.404Z,90.65
2017-12-02T00:16:55.537Z,89.37
2017-12-02T00:19:21.739Z,88.35
2017-12-02T00:21:47.856Z,88.05
2017-12-02T00:24:13.885Z,88.29
2017-12-02T00:26:40.037Z,88.39
2017-12-02T00:29:06.144Z,89.08
2017-12-02T00:31:32.359Z,89.51
2017-12-02T00:33:58.480Z,90.01
2017-12-02T00:36:24.696Z,90.56
2017-12-02T00:38:50.760Z,90.92
2017-12-02T00:41:16.845Z,91.04
2017-12-02T00:43:42.993Z,90.79
2017-12-02T00:46:09.185Z,90.18
2017-12-02T00:48:35.320Z,89.95
2017-12-02T00:51:01.438Z,89.84
2017-12-02T00:53:27.643Z,89.46
2017-12-02T00:55:53.792Z,89.71
2017-12-02T00:58:19.892Z,89.58
2017-12-02T01:00:46.016Z,89.78
2017-12-02T01:03:12.113Z,89.46
2017-12-02T01:05:38.231Z,89.53
2017-12-02T01:08:04.332Z,89.66
2017-12-02T01:10:30.520Z,89.61
2017-12-02T01:12:56.624Z,89.74
2017-12-02T01:15:22.725Z,89.80
2017-12-02T01:17:48.876Z,89.38
2017-12-02T01:20:15.012Z,89.33
2017-12-02T01:22:41.175Z,89.19
2017-12-02T01:25:07.323Z,89.14
2017-12-02T01:27:33.441Z,89.28
2017-12-02T01:29:59.565Z,89.34
2017-12-02T01:32:25.720Z,89.48
2017-12-02T01:34:51.837Z,89.49
2017-12-02T01:37:17.948Z,88.57
2017-12-02T01:39:44.116Z,88.50
2017-12-02T01:42:10.207Z,88.32
2017-12-02T01:44:36.306Z,88.63
2017-12-02T01:47:02.435Z,88.14
2017-12-02T01:49:28.501Z,88.36
2017-12-02T01:51:54.652Z,88.09
2017-12-02T01:54:20.824Z,87.97
2017-12-02T01:56:47.447Z,88.53
2017-12-02T01:59:13.624Z,88.61
2017-12-02T02:01:39.807Z,88.78
2017-12-02T02:04:05.939Z,88.42
2017-12-02T02:06:32.054Z,87.28
2017-12-02T02:08:58.160Z,87.78
2017-12-02T02:11:24.256Z,87.85
2017-12-02T02:13:50.358Z,88.08
2017-12-02T02:16:16.506Z,87.84
2017-12-02T02:18:42.631Z,87.77
2017-12-02T02:21:09.108Z,87.95
2017-12-02T02:23:35.202Z,88.36
2017-12-02T02:26:01.342Z,88.37
2017-12-02T02:28:27.463Z,88.27
2017-12-02T02:30:53.585Z,87.82
2017-12-02T02:33:20.176Z,87.69
2017-12-02T02:35:46.360Z,87.79
2017-12-02T02:38:12.459Z,87.74
2017-12-02T02:40:38.604Z,87.78
2017-12-02T02:43:04.767Z,87.55
2017-12-02T02:45:30.889Z,87.59
2017-12-02T02:47:56.992Z,87.66
2017-12-02T02:50:23.152Z,87.41
2017-12-02T02:52:49.284Z,87.38
2017-12-02T02:55:15.442Z,87.40
2017-12-02T02:57:41.575Z,87.23
2017-12-02T03:00:07.712Z,87.08
2017-12-02T03:02:33.859Z,87.01
2017-12-02T03:04:59.896Z,86.78
2017-12-02T03:07:25.988Z,86.99
2017-12-02T03:09:52.144Z,87.04
2017-12-02T03:12:18.210Z,87.17
2017-12-02T03:14:44.283Z,87.60
2017-12-02T03:17:10.394Z,87.24
2017-12-02T03:19:36.499Z,87.09
2017-12-02T03:22:02.609Z,87.06
2017-12-02T03:24:28.680Z,86.57
2017-12-02T03:26:54.796Z,86.70
2017-12-02T03:29:20.852Z,86.60
2017-12-02T03:31:46.979Z,86.87
2017-12-02T03:34:13.099Z,87.18
2017-12-02T03:36:39.252Z,87.41
2017-12-02T03:39:05.325Z,86.83
2017-12-02T03:41:32.004Z,86.03
2017-12-02T03:43:58.068Z,85.85
2017-12-02T03:46:24.127Z,85.74
2017-12-02T03:48:50.215Z,85.71
2017-12-02T03:51:16.316Z,86.13
2017-12-02T03:53:42.432Z,86.64
2017-12-02T03:56:08.543Z,86.60
2017-12-02T03:58:34.676Z,86.44
2017-12-02T04:01:00.844Z,86.52
2017-12-02T04:03:26.935Z,86.24
2017-12-02T04:05:53.049Z,86.34
2017-12-02T04:08:19.156Z,85.85
2017-12-02T04:10:45.385Z,86.30
2017-12-02T04:13:11.472Z,86.29
2017-12-02T04:15:37.544Z,86.12
2017-12-02T04:18:03.711Z,86.06
2017-12-02T04:20:29.907Z,85.98
2017-12-02T04:22:55.991Z,86.28
2017-12-02T04:25:22.068Z,86.47
2017-12-02T04:27:48.161Z,86.57
2017-12-02T04:30:14.282Z,86.49
2017-12-02T04:32:40.360Z,87.32
2017-12-02T04:35:06.437Z,87.33
2017-12-02T04:37:32.543Z,87.06
2017-12-02T04:39:58.572Z,86.69
2017-12-02T04:42:24.663Z,86.74
2017-12-02T04:44:50.740Z,86.80
2017-12-02T04:47:16.853Z,86.49
2017-12-02T04:49:42.944Z,86.33
2017-12-02T04:52:09.061Z,86.24
2017-12-02T04:54:35.140Z,86.48
2017-12-02T04:57:01.305Z,86.94
2017-12-02T04:59:27.438Z,87.12
2017-12-02T05:01:53.569Z,87.32
2017-12-02T05:04:19.680Z,87.12
2017-12-02T05:06:45.755Z,86.93
2017-12-02T05:09:11.851Z,86.69
2017-12-02T05:11:37.931Z,86.28
2017-12-02T05:14:04.096Z,86.24
2017-12-02T05:16:30.200Z,86.07
2017-12-02T05:18:56.236Z,86.26
2017-12-02T05:21:22.321Z,85.85
2017-12-02T05:23:48.397Z,86.15
2017-12-02T05:26:14.465Z,85.51
2017-12-02T05:28:40.579Z,85.74
2017-12-02T05:31:06.644Z,85.71
2017-12-02T05:33:32.728Z,86.13
2017-12-02T05:35:58.756Z,86.18
2017-12-02T05:38:24.876Z,86.57
2017-12-02T05:40:50.961Z,86.80
2017-12-02T05:43:17.015Z,86.82
2017-12-02T05:45:43.116Z,86.77
2017-12-02T05:48:09.260Z,86.80
2017-12-02T05:50:35.344Z,86.68
2017-12-02T05:53:01.477Z,86.62
2017-12-02T05:55:27.576Z,85.95
2017-12-02T05:57:53.624Z,85.51
2017-12-02T06:00:19.769Z,85.51
2017-12-02T06:02:46.220Z,85.69
2017-12-02T06:05:12.308Z,85.50
2017-12-02T06:07:38.440Z,85.68
2017-12-02T06:10:04.488Z,85.60
2017-12-02T06:12:30.560Z,85.69
2017-12-02T06:14:56.720Z,86.03
2017-12-02T06:17:22.796Z,86.10
2017-12-02T06:19:48.889Z,86.02
2017-12-02T06:22:14.969Z,85.86
2017-12-02T06:24:41.027Z,86.10
2017-12-02T06:27:07.139Z,85.69
2017-12-02T06:29:33.244Z,85.70
2017-12-02T06:31:59.335Z,85.93
2017-12-02T06:34:25.472Z,85.82
2017-12-02T06:36:51.616Z,85.84
2017-12-02T06:39:18.263Z,85.41
2017-12-02T06:41:44.384Z,85.54
2017-12-02T06:44:10.500Z,85.84
2017-12-02T06:46:36.606Z,85.84
2017-12-02T06:49:02.748Z,85.86
2017-12-02T06:51:28.867Z,85.48
2017-12-02T06:53:54.996Z,85.22
2017-12-02T06:56:21.086Z,85.46
2017-12-02T06:58:47.152Z,85.31
2017-12-02T07:01:13.283Z,85.41
2017-12-02T07:03:39.411Z,85.00
2017-12-02T07:06:05.531Z,85.27
2017-12-02T07:08:31.631Z,85.18
2017-12-02T07:10:57.783Z,85.42
2017-12-02T07:13:23.916Z,85.75
2017-12-02T07:15:50.063Z,85.69
2017-12-02T07:18:16.187Z,86.02
2017-12-02T07:20:42.212Z,85.88
2017-12-02T07:23:08.350Z,85.69
2017-12-02T07:25:34.488Z,85.45
2017-12-02T07:28:00.574Z,85.40
2017-12-02T07:30:26.698Z,86.17
2017-12-02T07:32:52.779Z,86.72
2017-12-02T07:35:18.904Z,86.28
2017-12-02T07:37:45.012Z,86.80
2017-12-02T07:40:11.108Z,87.28
2017-12-02T07:42:37.308Z,86.91
2017-12-02T07:45:03.504Z,86.21
2017-12-02T07:47:29.595Z,85.92
2017-12-02T07:49:55.693Z,85.10
2017-12-02T07:52:21.720Z,85.00
2017-12-02T07:54:47.839Z,85.97
2017-12-02T07:57:13.888Z,85.97
2017-12-02T07:59:40.052Z,86.46
2017-12-02T08:02:06.160Z,85.48
2017-12-02T08:04:32.321Z,85.75
2017-12-02T08:06:58.347Z,86.23
2017-12-02T08:09:24.399Z,87.82
2017-12-02T08:11:50.539Z,87.68
2017-12-02T08:14:16.635Z,86.37
2017-12-02T08:16:42.737Z,86.61
2017-12-02T08:19:08.847Z,87.33
2017-12-02T08:21:34.894Z,87.36
2017-12-02T08:24:00.961Z,87.56
2017-12-02T08:26:27.103Z,87.55
2017-12-02T08:28:53.209Z,87.32
2017-12-02T08:31:19.336Z,88.67
2017-12-02T08:33:45.430Z,88.01
2017-12-02T08:36:11.513Z,89.87
2017-12-02T08:38:37.607Z,87.98
2017-12-02T08:41:03.720Z,88.18
2017-12-02T08:43:33.753Z,88.90
2017-12-02T08:46:00.675Z,89.85
2017-12-02T08:48:27.700Z,87.41
2017-12-02T08:50:53.847Z,87.58
2017-12-02T08:53:19.982Z,88.02
2017-12-02T08:55:46.043Z,88.81
2017-12-02T08:58:12.136Z,89.00
2017-12-02T09:00:38.232Z,88.65
2017-12-02T09:03:04.373Z,89.07
2017-12-02T09:05:30.445Z,89.91
2017-12-02T09:07:56.530Z,90.23
2017-12-02T09:10:22.610Z,90.13
2017-12-02T09:12:48.700Z,90.31
2017-12-02T09:15:14.783Z,90.65
2017-12-02T09:17:40.867Z,90.72
2017-12-02T09:20:06.992Z,90.92
2017-12-02T09:22:33.087Z,91.96
2017-12-02T09:24:59.164Z,91.77
2017-12-02T09:27:25.244Z,92.29
2017-12-02T09:29:51.368Z,92.10
2017-12-02T09:32:18.065Z,92.04
2017-12-02T09:34:44.152Z,92.06
2017-12-02T09:37:10.302Z,91.96
2017-12-02T09:39:36.363Z,92.11
2017-12-02T09:42:02.462Z,91.96
2017-12-02T09:44:28.580Z,92.59
2017-12-02T09:46:54.650Z,92.73
2017-12-02T09:49:20.701Z,92.69
2017-12-02T09:51:46.764Z,92.75
2017-12-02T09:54:12.875Z,92.14
2017-12-02T09:56:38.945Z,91.98
2017-12-02T09:59:04.988Z,91.25
2017-12-02T10:01:31.148Z,91.47
2017-12-02T10:03:57.226Z,91.46
2017-12-02T10:06:23.307Z,91.91
2017-12-02T10:08:49.424Z,90.89
2017-12-02T10:11:15.515Z,91.57
2017-12-02T10:13:41.670Z,90.26
2017-12-02T10:16:07.794Z,90.43
2017-12-02T10:18:33.927Z,90.41
2017-12-02T10:20:59.959Z,89.66
2017-12-02T10:23:26.126Z,89.33
2017-12-02T10:25:52.365Z,88.57
2017-12-02T10:28:18.468Z,88.43
2017-12-02T10:30:44.551Z,88.26
2017-12-02T10:33:10.706Z,88.01
2017-12-02T10:35:36.852Z,86.50
2017-12-02T10:38:02.956Z,86.49
2017-12-02T10:40:29.141Z,86.16
2017-12-02T10:42:55.434Z,86.44
2017-12-02T10:45:21.520Z,86.51
2017-12-02T10:47:47.644Z,85.12
2017-12-02T10:50:13.822Z,85.17
2017-12-02T10:52:39.941Z,84.14
2017-12-02T10:55:06.016Z,84.96
2017-12-02T10:57:32.112Z,84.54
2017-12-02T10:59:58.243Z,83.46
2017-12-02T11:02:24.308Z,84.15
2017-12-02T11:04:50.476Z,83.62
2017-12-02T11:07:16.575Z,84.16
2017-12-02T11:09:42.657Z,83.16
2017-12-02T11:12:08.724Z,82.67
2017-12-02T11:14:34.914Z,83.09
2017-12-02T11:17:01.057Z,83.86
2017-12-02T11:19:27.166Z,84.48
2017-12-02T11:21:53.326Z,83.55
2017-12-02T11:24:19.499Z,84.13
2017-12-02T11:26:45.722Z,83.59
2017-12-02T11:29:11.924Z,83.37
2017-12-02T11:31:37.980Z,83.37
2017-12-02T11:34:04.124Z,83.07
2017-12-02T11:36:30.280Z,82.88
2017-12-02T11:38:56.424Z,83.98
2017-12-02T11:41:22.547Z,82.21
2017-12-02T11:43:48.668Z,82.45
2017-12-02T11:46:14.752Z,82.02
2017-12-02T11:48:40.957Z,82.34
2017-12-02T11:51:07.195Z,80.99
2017-12-02T11:53:33.400Z,81.15
2017-12-02T11:55:59.549Z,81.19
2017-12-02T11:58:25.674Z,81.87
2017-12-02T12:00:51.838Z,82.46
2017-12-02T12:03:17.958Z,82.19
2017-12-02T12:05:44.082Z,81.57
2017-12-02T12:08:10.235Z,82.41
2017-12-02T12:10:36.353Z,81.61
2017-12-02T12:13:02.557Z,81.89
2017-12-02T12:15:28.713Z,81.44
2017-12-02T12:17:54.914Z,81.68
2017-12-02T12:20:21.027Z,82.17
2017-12-02T12:22:47.149Z,81.60
2017-12-02T12:25:13.285Z,82.22
2017-12-02T12:27:39.392Z,82.07
2017-12-02T12:30:05.549Z,81.71
2017-12-02T12:32:31.733Z,81.13
2017-12-02T12:34:58.653Z,80.70
2017-12-02T12:37:24.776Z,80.20
2017-12-02T12:39:50.904Z,79.99
2017-12-02T12:42:17.044Z,79.79
2017-12-02T12:44:43.181Z,78.78
2017-12-02T12:47:09.309Z,78.91
2017-12-02T12:49:35.548Z,78.93
2017-12-02T12:52:01.700Z,78.72
2017-12-02T12:54:27.867Z,78.45
2017-12-02T12:56:54.016Z,79.05
2017-12-02T12:59:20.298Z,78.46
2017-12-02T13:01:46.465Z,78.81
2017-12-02T13:04:12.656Z,78.76
2017-12-02T13:06:38.856Z,78.41
2017-12-02T13:09:04.964Z,78.65
2017-12-02T13:11:31.120Z,78.56
2017-12-02T13:13:57.268Z,78.97
2017-12-02T13:16:23.360Z,79.87
2017-12-02T13:18:49.539Z,79.17
2017-12-02T13:21:15.643Z,79.46
2017-12-02T13:23:41.755Z,78.98
2017-12-02T13:26:07.929Z,79.15
2017-12-02T13:28:34.071Z,79.36
2017-12-02T13:31:00.220Z,79.11
2017-12-02T13:33:26.323Z,80.00
2017-12-02T13:35:52.459Z,79.82
2017-12-02T13:38:18.571Z,79.67
2017-12-02T13:40:44.708Z,79.11
2017-12-02T13:43:10.833Z,79.92
2017-12-02T13:45:36.965Z,79.32
2017-12-02T13:48:03.102Z,79.66
2017-12-02T13:50:29.391Z,80.05
2017-12-02T13:52:55.607Z,80.12
2017-12-02T13:55:21.843Z,81.36
2017-12-02T13:57:47.905Z,80.97
2017-12-02T14:00:14.044Z,80.11
2017-12-02T14:02:40.200Z,79.96
2017-12-02T14:05:06.508Z,79.77
2017-12-02T14:07:32.638Z,79.68
2017-12-02T14:09:58.784Z,79.09
2017-12-02T14:12:24.884Z,79.78
2017-12-02T14:14:51.061Z,80.11
2017-12-02T14:17:17.102Z,80.65
2017-12-02T14:19:43.244Z,80.17
2017-12-02T14:22:09.330Z,80.16
2017-12-02T14:24:35.467Z,80.53
2017-12-02T14:27:01.612Z,80.93
2017-12-02T14:29:27.737Z,80.76
2017-12-02T14:31:53.908Z,81.39
2017-12-02T14:34:20.039Z,80.28
2017-12-02T14:36:46.156Z,81.30
2017-12-02T14:39:12.357Z,81.21
2017-12-02T14:41:38.453Z,81.37
2017-12-02T14:44:04.584Z,81.09
2017-12-02T14:46:30.677Z,81.45
2017-12-02T14:48:56.781Z,81.36
2017-12-02T14:51:22.968Z,81.26
2017-12-02T14:53:49.052Z,81.02
2017-12-02T14:56:15.168Z,81.12
2017-12-02T14:58:41.273Z,80.57
2017-12-02T15:01:07.391Z,81.48
2017-12-02T15:03:33.687Z,81.39
2017-12-02T15:05:59.802Z,82.04
2017-12-02T15:08:25.996Z,81.66
2017-12-02T15:10:52.121Z,82.38
2017-12-02T15:13:18.246Z,81.71
2017-12-02T15:15:44.365Z,82.40
2017-12-02T15:18:11.359Z,82.40
2017-12-02T15:20:37.600Z,82.56
2017-12-02T15:23:03.776Z,83.46
2017-12-02T15:25:29.900Z,82.80
2017-12-02T15:27:56.092Z,82.36
2017-12-02T15:30:23.060Z,82.84
2017-12-02T15:32:49.211Z,83.19
2017-12-02T15:35:15.297Z,83.39
2017-12-02T15:37:41.469Z,83.62
2017-12-02T15:40:07.592Z,83.81
2017-12-02T15:42:33.696Z,83.97
2017-12-02T15:44:59.892Z,83.88
2017-12-02T15:47:26.036Z,84.65
2017-12-02T15:49:52.206Z,84.50
2017-12-02T15:52:18.331Z,84.19
2017-12-02T15:54:44.512Z,84.02
2017-12-02T15:57:10.783Z,84.58
2017-12-02T15:59:36.946Z,84.13
2017-12-02T16:02:03.090Z,84.68
2017-12-02T16:04:29.209Z,84.80
2017-12-02T16:06:55.340Z,84.51
2017-12-02T16:09:21.568Z,84.59
2017-12-02T16:11:47.739Z,84.84
2017-12-02T16:14:13.960Z,84.75
2017-12-02T16:16:40.220Z,85.04
2017-12-02T16:19:06.307Z,84.60
2017-12-02T16:21:32.428Z,84.88
2017-12-02T16:23:58.592Z,85.07
2017-12-02T16:26:24.644Z,85.38
2017-12-02T16:28:50.792Z,84.60
2017-12-02T16:31:16.965Z,84.96
2017-12-02T16:33:43.146Z,84.62
2017-12-02T16:36:09.293Z,85.46
2017-12-02T16:38:35.384Z,84.95
2017-12-02T16:41:01.603Z,85.00
2017-12-02T16:43:27.797Z,85.24
2017-12-02T16:45:53.921Z,85.29
2017-12-02T16:48:19.984Z,85.19
2017-12-02T16:50:46.299Z,85.27
2017-12-02T16:53:12.473Z,85.10
2017-12-02T16:55:38.553Z,85.20
2017-12-02T16:58:04.761Z,84.85
2017-12-02T17:00:31.016Z,85.46
2017-12-02T17:02:57.137Z,85.40
2017-12-02T17:05:23.264Z,85.56
2017-12-02T17:07:49.492Z,85.21
2017-12-02T17:10:15.657Z,85.54
2017-12-02T17:12:41.745Z,85.61
2017-12-02T17:15:07.960Z,85.71
2017-12-02T17:17:34.123Z,85.52
2017-12-02T17:20:00.338Z,85.68
2017-12-02T17:22:26.466Z,85.82
2017-12-02T17:24:52.556Z,85.74
2017-12-02T17:27:18.649Z,85.86
2017-12-02T17:29:44.784Z,85.49
2017-12-02T17:32:10.942Z,85.62
2017-12-02T17:34:37.025Z,85.09
2017-12-02T17:37:03.168Z,85.01
2017-12-02T17:39:29.319Z,85.30
2017-12-02T17:41:55.499Z,85.42
2017-12-02T17:44:21.636Z,84.74
2017-12-02T17:46:47.723Z,84.69
2017-12-02T17:49:13.842Z,85.62
2017-12-02T17:51:39.916Z,85.36
2017-12-02T17:54:06.058Z,85.90
2017-12-02T17:56:32.371Z,85.93
2017-12-02T17:58:58.495Z,86.21
2017-12-02T18:01:24.637Z,86.12
2017-12-02T18:03:50.758Z,86.59
2017-12-02T18:06:16.922Z,86.73
2017-12-02T18:08:43.068Z,87.02
2017-12-02T18:11:09.205Z,86.48
2017-12-02T18:13:35.350Z,87.21
2017-12-02T18:16:01.480Z,87.25
2017-12-02T18:18:27.660Z,87.41
2017-12-02T18:20:53.757Z,87.47
2017-12-02T18:23:19.863Z,87.44
2017-12-02T18:25:45.988Z,87.04
2017-12-02T18:28:12.232Z,87.13
2017-12-02T18:30:38.367Z,86.65
2017-12-02T18:33:04.518Z,86.80
2017-12-02T18:35:30.649Z,86.81
2017-12-02T18:37:56.779Z,86.39
2017-12-02T18:40:22.900Z,86.37
2017-12-02T18:42:49.052Z,86.25
2017-12-02T18:45:15.131Z,86.38
2017-12-02T18:47:41.270Z,86.50
2017-12-02T18:50:07.366Z,86.62
2017-12-02T18:52:33.528Z,86.12
2017-12-02T18:54:59.657Z,86.48
2017-12-02T18:57:25.794Z,85.82
2017-12-02T18:59:51.940Z,86.03
2017-12-02T19:02:18.156Z,85.87
2017-12-02T19:04:44.270Z,85.89
2017-12-02T19:07:10.458Z,85.76
2017-12-02T19:09:36.629Z,85.04
2017-12-02T19:12:02.820Z,85.24
2017-12-02T19:14:28.969Z,85.00
2017-12-02T19:16:55.175Z,85.39
2017-12-02T19:19:21.348Z,85.25
2017-12-02T19:21:47.569Z,85.06
2017-12-02T19:24:13.659Z,84.68
2017-12-02T19:26:39.809Z,84.70
2017-12-02T19:29:06.052Z,85.36
2017-12-02T19:31:32.205Z,85.55
2017-12-02T19:33:58.501Z,86.04
2017-12-02T19:36:24.636Z,86.06
2017-12-02T19:38:50.774Z,85.77
2017-12-02T19:41:17.127Z,84.71
2017-12-02T19:43:43.353Z,85.01
2017-12-02T19:46:09.538Z,85.64
2017-12-02T19:48:35.700Z,85.00
2017-12-02T19:51:01.895Z,85.40
2017-12-02T19:53:28.074Z,85.19
2017-12-02T19:55:54.215Z,84.85
2017-12-02T19:58:20.407Z,85.20
2017-12-02T20:00:46.547Z,85.38
2017-12-02T20:03:12.808Z,85.18
2017-12-02T20:05:38.972Z,84.96
2017-12-02T20:08:05.117Z,85.82
2017-12-02T20:10:31.365Z,85.73
2017-12-02T20:12:58.267Z,85.83
2017-12-02T20:15:24.541Z,85.60
2017-12-02T20:17:50.798Z,85.77
2017-12-02T20:20:17.223Z,85.75
2017-12-02T20:22:43.505Z,85.74
2017-12-02T20:25:09.723Z,86.37
2017-12-02T20:27:35.949Z,86.45
2017-12-02T20:30:02.122Z,86.13
2017-12-02T20:32:28.450Z,85.87
2017-12-02T20:44:39.737Z,86.34
2017-12-02T20:47:06.036Z,86.24
2017-12-02T20:49:32.348Z,86.17
2017-12-02T20:51:58.537Z,86.28
2017-12-02T20:54:24.801Z,86.32
2017-12-02T20:56:50.957Z,86.15
2017-12-02T20:59:17.136Z,86.32
2017-12-02T21:01:43.493Z,86.44
2017-12-02T21:04:09.726Z,86.75
2017-12-02T21:06:35.925Z,86.21
2017-12-02T21:09:02.156Z,86.39
2017-12-02T21:11:28.372Z,86.42
2017-12-02T21:13:54.590Z,86.58
2017-12-02T21:16:20.982Z,86.80
2017-12-02T21:18:47.157Z,86.90
2017-12-02T21:21:13.488Z,86.80
2017-12-02T21:23:39.727Z,87.41
2017-12-02T21:26:05.966Z,87.70
2017-12-02T21:28:32.190Z,88.00
2017-12-02T21:30:58.350Z,88.23
2017-12-02T21:33:24.594Z,89.10
2017-12-02T21:35:50.783Z,88.92
2017-12-02T21:38:16.984Z,88.36
2017-12-02T21:40:43.345Z,88.19
2017-12-02T21:43:09.520Z,88.12
2017-12-02T21:45:36.585Z,88.01
2017-12-02T21:48:02.781Z,87.89
2017-12-02T21:50:28.869Z,88.10
2017-12-02T21:52:55.013Z,88.05
2017-12-02T21:55:21.145Z,88.07
2017-12-02T21:57:47.216Z,87.13
2017-12-02T22:00:13.425Z,86.78
2017-12-02T22:02:39.531Z,87.40
2017-12-02T22:05:05.768Z,88.18
2017-12-02T22:07:31.884Z,88.95
2017-12-02T22:09:57.975Z,89.44
2017-12-02T22:12:24.109Z,89.05
2017-12-02T22:14:50.292Z,89.22
2017-12-02T22:17:16.432Z,89.09
2017-12-02T22:19:42.568Z,89.68
2017-12-02T22:22:08.705Z,89.55
2017-12-02T22:24:34.881Z,89.19
2017-12-02T22:27:01.000Z,89.26
2017-12-02T22:29:27.166Z,89.77
2017-12-02T22:31:54.960Z,90.44
2017-12-02T22:36:58.737Z,90.31
2017-12-02T22:39:24.809Z,90.33
2017-12-02T22:41:51.033Z,90.33
2017-12-02T22:44:17.168Z,90.11
2017-12-02T22:46:43.422Z,89.71
2017-12-02T22:49:09.568Z,89.79
2017-12-02T22:51:35.762Z,90.14
2017-12-02T22:54:02.884Z,89.98
2017-12-02T22:56:29.060Z,90.10
2017-12-02T22:58:55.317Z,90.15
2017-12-02T23:01:21.528Z,89.12
2017-12-02T23:03:47.839Z,89.14
2017-12-02T23:06:13.960Z,89.32
2017-12-02T23:08:40.247Z,89.56
2017-12-02T23:11:06.489Z,90.07
2017-12-02T23:13:32.594Z,90.57
2017-12-02T23:15:58.806Z,90.75
2017-12-02T23:18:24.981Z,90.88
2017-12-02T23:20:51.306Z,91.15
2017-12-02T23:23:17.435Z,91.58
2017-12-02T23:25:43.561Z,92.24
2017-12-02T23:28:09.737Z,92.57
2017-12-02T23:30:35.904Z,92.32
2017-12-02T23:33:02.036Z,92.28
2017-12-02T23:35:28.158Z,92.45
2017-12-02T23:37:54.279Z,92.59
2017-12-02T23:40:20.410Z,92.45
2017-12-02T23:42:46.739Z,92.11
2017-12-02T23:45:12.903Z,92.22
2017-12-02T23:47:39.092Z,92.22
2017-12-02T23:50:05.239Z,91.96
2017-12-02T23:52:31.364Z,92.18
2017-12-02T23:54:57.549Z,92.33
2017-12-02T23:57:23.675Z,92.44
2017-12-02T23:59:49.819Z,92.09
